sensor_id;sensor_type;location;lat;lon;timestamp;pressure;altitude;pressure_sealevel;temperature;humidity
51986;BME280;38002;53.296;6.600;2023-12-22T00:01:58;99848.16;;;5.58;89.32
51986;BME280;38002;53.296;6.600;2023-12-22T00:06:58;99838.53;;;5.73;88.94
51986;BME280;38002;53.296;6.600;2023-12-22T00:11:59;99902.47;;;5.81;89.19
51986;BME280;38002;53.296;6.600;2023-12-22T00:16:59;99871.44;;;5.59;90.01
51986;BME280;38002;53.296;6.600;2023-12-22T00:22:00;99864.31;;;5.40;89.50
51986;BME280;38002;53.296;6.600;2023-12-22T00:27:00;99863.66;;;5.38;89.65
51986;BME280;38002;53.296;6.600;2023-12-22T00:32:01;99868.00;;;5.39;89.74
51986;BME280;38002;53.296;6.600;2023-12-22T00:37:02;99871.09;;;5.44;89.51
51986;BME280;38002;53.296;6.600;2023-12-22T00:42:04;99875.25;;;5.57;88.32
51986;BME280;38002;53.296;6.600;2023-12-22T00:47:05;99867.72;;;5.60;88.03
51986;BME280;38002;53.296;6.600;2023-12-22T00:52:05;99892.47;;;5.56;87.91
51986;BME280;38002;53.296;6.600;2023-12-22T00:57:05;99879.66;;;5.58;87.79
51986;BME280;38002;53.296;6.600;2023-12-22T01:02:06;99854.41;;;5.59;88.58
51986;BME280;38002;53.296;6.600;2023-12-22T01:07:08;99878.50;;;5.78;88.29
51986;BME280;38002;53.296;6.600;2023-12-22T01:12:08;99871.63;;;5.83;88.94
51986;BME280;38002;53.296;6.600;2023-12-22T01:17:11;99874.50;;;5.82;89.01
51986;BME280;38002;53.296;6.600;2023-12-22T01:22:11;99885.28;;;5.82;88.52
51986;BME280;38002;53.296;6.600;2023-12-22T01:27:12;99901.25;;;5.93;88.45
51986;BME280;38002;53.296;6.600;2023-12-22T01:32:13;99920.38;;;6.00;87.64
51986;BME280;38002;53.296;6.600;2023-12-22T01:37:13;99920.91;;;6.03;87.96
51986;BME280;38002;53.296;6.600;2023-12-22T01:42:14;99922.28;;;6.07;87.91
51986;BME280;38002;53.296;6.600;2023-12-22T01:47:15;99928.69;;;6.06;88.89
51986;BME280;38002;53.296;6.600;2023-12-22T01:52:16;99931.00;;;6.01;87.98
51986;BME280;38002;53.296;6.600;2023-12-22T01:57:16;99933.94;;;5.90;87.91
51986;BME280;38002;53.296;6.600;2023-12-22T02:02:19;99937.84;;;5.78;88.15
51986;BME280;38002;53.296;6.600;2023-12-22T02:07:19;99928.66;;;5.71;88.52
51986;BME280;38002;53.296;6.600;2023-12-22T02:12:20;99947.72;;;5.69;88.54
51986;BME280;38002;53.296;6.600;2023-12-22T02:17:26;99945.69;;;5.71;89.46
51986;BME280;38002;53.296;6.600;2023-12-22T02:22:29;99930.75;;;5.59;89.39
51986;BME280;38002;53.296;6.600;2023-12-22T02:27:33;99922.50;;;5.43;90.07
51986;BME280;38002;53.296;6.600;2023-12-22T02:32:37;99935.19;;;5.33;90.11
51986;BME280;38002;53.296;6.600;2023-12-22T02:37:39;99930.09;;;5.30;90.38
51986;BME280;38002;53.296;6.600;2023-12-22T02:42:41;99941.56;;;5.32;90.73
51986;BME280;38002;53.296;6.600;2023-12-22T02:47:42;99931.03;;;5.38;91.25
51986;BME280;38002;53.296;6.600;2023-12-22T02:52:42;99912.25;;;5.46;90.44
51986;BME280;38002;53.296;6.600;2023-12-22T02:57:43;99941.69;;;5.58;90.61
51986;BME280;38002;53.296;6.600;2023-12-22T03:02:43;99928.13;;;5.49;90.57
51986;BME280;38002;53.296;6.600;2023-12-22T03:07:43;99918.94;;;5.25;91.21
51986;BME280;38002;53.296;6.600;2023-12-22T03:12:44;99930.81;;;5.05;91.43
51986;BME280;38002;53.296;6.600;2023-12-22T03:17:44;99922.69;;;4.87;91.49
51986;BME280;38002;53.296;6.600;2023-12-22T03:22:45;99941.25;;;4.80;92.28
51986;BME280;38002;53.296;6.600;2023-12-22T03:27:45;99939.69;;;4.87;91.89
51986;BME280;38002;53.296;6.600;2023-12-22T03:32:45;99958.31;;;5.08;91.73
51986;BME280;38002;53.296;6.600;2023-12-22T03:37:46;99918.59;;;5.28;91.61
51986;BME280;38002;53.296;6.600;2023-12-22T03:42:46;99932.13;;;5.45;91.33
51986;BME280;38002;53.296;6.600;2023-12-22T03:47:47;99947.38;;;5.55;91.59
51986;BME280;38002;53.296;6.600;2023-12-22T03:52:47;99936.75;;;5.53;91.54
51986;BME280;38002;53.296;6.600;2023-12-22T03:57:48;99965.28;;;5.56;91.85
51986;BME280;38002;53.296;6.600;2023-12-22T04:02:48;99955.25;;;5.66;90.95
51986;BME280;38002;53.296;6.600;2023-12-22T04:07:48;99963.09;;;5.59;90.65
51986;BME280;38002;53.296;6.600;2023-12-22T04:12:49;99976.50;;;5.51;91.04
51986;BME280;38002;53.296;6.600;2023-12-22T04:17:49;99985.19;;;5.45;92.14
51986;BME280;38002;53.296;6.600;2023-12-22T04:22:50;99973.56;;;5.44;92.08
51986;BME280;38002;53.296;6.600;2023-12-22T04:27:51;99973.88;;;5.41;91.81
51986;BME280;38002;53.296;6.600;2023-12-22T04:32:51;99993.38;;;5.53;91.43
51986;BME280;38002;53.296;6.600;2023-12-22T04:37:52;99988.91;;;5.62;90.20
51986;BME280;38002;53.296;6.600;2023-12-22T04:42:52;99987.69;;;5.74;89.34
51986;BME280;38002;53.296;6.600;2023-12-22T04:47:52;99989.91;;;5.88;89.34
51986;BME280;38002;53.296;6.600;2023-12-22T04:52:53;100006.41;;;6.03;88.32
51986;BME280;38002;53.296;6.600;2023-12-22T04:57:53;99988.59;;;6.10;87.74
51986;BME280;38002;53.296;6.600;2023-12-22T05:02:54;100002.94;;;6.10;87.37
51986;BME280;38002;53.296;6.600;2023-12-22T05:07:54;99997.22;;;6.13;86.58
51986;BME280;38002;53.296;6.600;2023-12-22T05:12:54;100016.09;;;6.13;86.97
51986;BME280;38002;53.296;6.600;2023-12-22T05:17:55;100005.38;;;6.21;87.26
51986;BME280;38002;53.296;6.600;2023-12-22T05:22:55;100010.50;;;6.24;87.33
51986;BME280;38002;53.296;6.600;2023-12-22T05:27:57;100026.38;;;6.27;86.68
51986;BME280;38002;53.296;6.600;2023-12-22T05:32:57;100023.53;;;6.29;87.07
51986;BME280;38002;53.296;6.600;2023-12-22T05:37:57;100016.97;;;6.31;86.63
51986;BME280;38002;53.296;6.600;2023-12-22T05:42:58;100020.38;;;6.33;86.91
51986;BME280;38002;53.296;6.600;2023-12-22T05:47:58;100039.09;;;6.35;87.26
51986;BME280;38002;53.296;6.600;2023-12-22T05:52:59;100023.59;;;6.37;87.03
51986;BME280;38002;53.296;6.600;2023-12-22T05:57:59;100021.56;;;6.39;86.84
51986;BME280;38002;53.296;6.600;2023-12-22T06:03:01;100045.03;;;6.38;87.03
51986;BME280;38002;53.296;6.600;2023-12-22T06:08:01;100026.28;;;6.37;86.63
51986;BME280;38002;53.296;6.600;2023-12-22T06:13:02;100051.84;;;6.43;86.92
51986;BME280;38002;53.296;6.600;2023-12-22T06:18:04;100066.00;;;6.45;86.67
51986;BME280;38002;53.296;6.600;2023-12-22T06:23:05;100051.53;;;6.46;86.82
51986;BME280;38002;53.296;6.600;2023-12-22T06:28:05;100048.50;;;6.49;86.95
51986;BME280;38002;53.296;6.600;2023-12-22T06:33:06;100044.78;;;6.50;86.33
51986;BME280;38002;53.296;6.600;2023-12-22T06:38:06;100063.69;;;6.50;86.14
51986;BME280;38002;53.296;6.600;2023-12-22T06:43:07;100051.06;;;6.32;85.96
51986;BME280;38002;53.296;6.600;2023-12-22T06:48:07;100052.31;;;6.20;87.24
51986;BME280;38002;53.296;6.600;2023-12-22T06:53:10;100059.28;;;6.13;87.46
51986;BME280;38002;53.296;6.600;2023-12-22T06:58:10;100050.13;;;6.06;86.89
51986;BME280;38002;53.296;6.600;2023-12-22T07:03:10;100074.56;;;6.05;87.61
51986;BME280;38002;53.296;6.600;2023-12-22T07:08:12;100096.16;;;6.05;87.86
51986;BME280;38002;53.296;6.600;2023-12-22T07:13:13;100138.47;;;6.04;89.57
51986;BME280;38002;53.296;6.600;2023-12-22T07:18:13;100121.28;;;5.78;89.35
51986;BME280;38002;53.296;6.600;2023-12-22T07:23:14;100113.41;;;5.57;90.55
51986;BME280;38002;53.296;6.600;2023-12-22T07:28:14;100110.38;;;5.42;91.23
51986;BME280;38002;53.296;6.600;2023-12-22T07:33:15;100125.72;;;5.32;91.95
51986;BME280;38002;53.296;6.600;2023-12-22T07:38:16;100136.50;;;5.23;92.55
51986;BME280;38002;53.296;6.600;2023-12-22T07:43:16;100134.25;;;5.18;92.86
51986;BME280;38002;53.296;6.600;2023-12-22T07:48:20;100132.00;;;5.14;93.20
51986;BME280;38002;53.296;6.600;2023-12-22T07:53:20;100138.66;;;5.19;93.14
51986;BME280;38002;53.296;6.600;2023-12-22T07:58:21;100117.81;;;5.21;94.02
51986;BME280;38002;53.296;6.600;2023-12-22T08:03:21;100126.59;;;5.23;94.08
51986;BME280;38002;53.296;6.600;2023-12-22T08:08:22;100118.50;;;5.23;94.92
51986;BME280;38002;53.296;6.600;2023-12-22T08:13:22;100122.03;;;5.24;94.78
51986;BME280;38002;53.296;6.600;2023-12-22T08:18:23;100128.72;;;5.29;95.53
51986;BME280;38002;53.296;6.600;2023-12-22T08:23:23;100132.81;;;5.33;95.12
51986;BME280;38002;53.296;6.600;2023-12-22T08:28:23;100113.19;;;5.41;95.50
51986;BME280;38002;53.296;6.600;2023-12-22T08:33:24;100113.31;;;5.49;96.33
51986;BME280;38002;53.296;6.600;2023-12-22T08:38:24;100123.66;;;5.54;95.70
51986;BME280;38002;53.296;6.600;2023-12-22T08:43:26;100106.34;;;5.56;95.35
51986;BME280;38002;53.296;6.600;2023-12-22T08:48:27;100115.97;;;5.59;95.18
51986;BME280;38002;53.296;6.600;2023-12-22T08:53:27;100119.22;;;5.62;95.79
51986;BME280;38002;53.296;6.600;2023-12-22T08:58:30;100120.78;;;5.65;96.10
51986;BME280;38002;53.296;6.600;2023-12-22T09:03:33;100114.63;;;5.72;96.05
51986;BME280;38002;53.296;6.600;2023-12-22T09:08:34;100091.22;;;5.73;96.05
51986;BME280;38002;53.296;6.600;2023-12-22T09:13:34;100075.25;;;5.79;96.08
51986;BME280;38002;53.296;6.600;2023-12-22T09:18:36;100087.19;;;5.86;96.59
51986;BME280;38002;53.296;6.600;2023-12-22T09:23:36;100098.22;;;5.93;96.33
51986;BME280;38002;53.296;6.600;2023-12-22T09:28:37;100098.31;;;6.01;96.51
51986;BME280;38002;53.296;6.600;2023-12-22T09:33:37;100100.56;;;6.06;96.83
51986;BME280;38002;53.296;6.600;2023-12-22T09:38:37;100096.72;;;6.08;97.04
51986;BME280;38002;53.296;6.600;2023-12-22T09:43:38;100100.09;;;6.10;97.57
51986;BME280;38002;53.296;6.600;2023-12-22T09:48:40;100087.00;;;6.15;97.29
51986;BME280;38002;53.296;6.600;2023-12-22T09:53:42;100096.34;;;6.21;97.16
51986;BME280;38002;53.296;6.600;2023-12-22T09:58:45;100088.31;;;6.29;97.21
51986;BME280;38002;53.296;6.600;2023-12-22T10:03:45;100096.31;;;6.38;97.40
51986;BME280;38002;53.296;6.600;2023-12-22T10:08:47;100093.88;;;6.45;97.27
51986;BME280;38002;53.296;6.600;2023-12-22T10:13:52;100108.31;;;6.54;97.48
51986;BME280;38002;53.296;6.600;2023-12-22T10:18:53;100110.22;;;6.61;96.96
51986;BME280;38002;53.296;6.600;2023-12-22T10:24:00;100096.78;;;6.69;97.12
51986;BME280;38002;53.296;6.600;2023-12-22T10:29:02;100105.97;;;6.76;97.26
51986;BME280;38002;53.296;6.600;2023-12-22T10:34:03;100093.66;;;6.82;97.46
51986;BME280;38002;53.296;6.600;2023-12-22T10:39:04;100090.34;;;6.88;97.72
51986;BME280;38002;53.296;6.600;2023-12-22T10:44:04;100084.34;;;6.94;97.27
51986;BME280;38002;53.296;6.600;2023-12-22T10:49:05;100063.25;;;6.98;97.93
51986;BME280;38002;53.296;6.600;2023-12-22T10:54:07;100075.25;;;7.03;97.52
51986;BME280;38002;53.296;6.600;2023-12-22T10:59:11;100076.81;;;7.06;97.50
51986;BME280;38002;53.296;6.600;2023-12-22T11:04:14;100090.69;;;7.11;97.58
51986;BME280;38002;53.296;6.600;2023-12-22T11:09:20;100079.41;;;7.15;97.74
51986;BME280;38002;53.296;6.600;2023-12-22T11:14:22;100094.59;;;7.16;97.92
51986;BME280;38002;53.296;6.600;2023-12-22T11:19:25;100080.94;;;7.18;97.51
51986;BME280;38002;53.296;6.600;2023-12-22T11:24:28;100082.31;;;7.22;98.08
51986;BME280;38002;53.296;6.600;2023-12-22T11:29:30;100068.31;;;7.26;98.08
51986;BME280;38002;53.296;6.600;2023-12-22T11:34:31;100091.63;;;7.27;98.25
51986;BME280;38002;53.296;6.600;2023-12-22T11:39:32;100065.13;;;7.31;97.57
51986;BME280;38002;53.296;6.600;2023-12-22T11:44:33;100056.84;;;7.33;97.74
51986;BME280;38002;53.296;6.600;2023-12-22T11:49:35;100051.81;;;7.38;98.01
51986;BME280;38002;53.296;6.600;2023-12-22T11:54:53;100043.38;;;7.41;97.86
51986;BME280;38002;53.296;6.600;2023-12-22T12:05:05;100032.06;;;7.45;97.19
51986;BME280;38002;53.296;6.600;2023-12-22T12:10:08;100023.09;;;7.45;97.68
51986;BME280;38002;53.296;6.600;2023-12-22T12:15:10;100014.00;;;7.46;97.65
51986;BME280;38002;53.296;6.600;2023-12-22T12:20:11;99997.75;;;7.46;97.50
51986;BME280;38002;53.296;6.600;2023-12-22T12:25:11;99995.72;;;7.48;97.56
51986;BME280;38002;53.296;6.600;2023-12-22T12:30:13;99997.41;;;7.49;97.81
51986;BME280;38002;53.296;6.600;2023-12-22T12:35:14;99983.19;;;7.47;97.78
51986;BME280;38002;53.296;6.600;2023-12-22T12:40:17;99984.06;;;7.47;97.88
51986;BME280;38002;53.296;6.600;2023-12-22T12:45:22;99980.50;;;7.47;98.21
51986;BME280;38002;53.296;6.600;2023-12-22T12:50:24;99990.66;;;7.45;98.07
51986;BME280;38002;53.296;6.600;2023-12-22T12:55:25;99987.25;;;7.43;98.16
51986;BME280;38002;53.296;6.600;2023-12-22T13:00:29;99990.28;;;7.40;97.78
51986;BME280;38002;53.296;6.600;2023-12-22T13:05:31;99979.97;;;7.35;97.96
51986;BME280;38002;53.296;6.600;2023-12-22T13:10:32;99986.19;;;7.27;98.29
51986;BME280;38002;53.296;6.600;2023-12-22T13:15:32;99973.31;;;7.21;98.82
51986;BME280;38002;53.296;6.600;2023-12-22T13:20:33;99981.91;;;7.17;99.64
51986;BME280;38002;53.296;6.600;2023-12-22T13:25:39;99979.88;;;7.11;99.52
51986;BME280;38002;53.296;6.600;2023-12-22T13:30:40;99996.56;;;7.06;99.89
51986;BME280;38002;53.296;6.600;2023-12-22T13:35:45;99987.94;;;7.03;100.00
51986;BME280;38002;53.296;6.600;2023-12-22T13:40:47;100005.78;;;6.96;100.00
51986;BME280;38002;53.296;6.600;2023-12-22T13:45:50;100008.09;;;6.91;100.00
51986;BME280;38002;53.296;6.600;2023-12-22T13:50:58;100005.72;;;6.88;100.00
51986;BME280;38002;53.296;6.600;2023-12-22T13:56:00;100004.50;;;6.82;100.00
51986;BME280;38002;53.296;6.600;2023-12-22T14:01:15;100015.97;;;6.76;100.00
51986;BME280;38002;53.296;6.600;2023-12-22T14:06:16;100020.00;;;6.72;100.00
51986;BME280;38002;53.296;6.600;2023-12-22T14:11:17;100033.72;;;6.61;100.00
51986;BME280;38002;53.296;6.600;2023-12-22T14:16:17;100041.25;;;6.49;100.00
51986;BME280;38002;53.296;6.600;2023-12-22T14:21:18;100007.78;;;6.42;100.00
51986;BME280;38002;53.296;6.600;2023-12-22T14:26:18;99989.03;;;6.41;100.00
51986;BME280;38002;53.296;6.600;2023-12-22T14:31:19;99985.78;;;6.37;100.00
51986;BME280;38002;53.296;6.600;2023-12-22T14:36:22;99970.75;;;6.34;100.00
51986;BME280;38002;53.296;6.600;2023-12-22T14:41:23;99974.47;;;6.33;100.00
51986;BME280;38002;53.296;6.600;2023-12-22T14:46:23;99968.38;;;6.31;100.00
51986;BME280;38002;53.296;6.600;2023-12-22T14:51:23;99955.19;;;6.28;100.00
51986;BME280;38002;53.296;6.600;2023-12-22T14:56:24;99954.81;;;6.23;100.00
51986;BME280;38002;53.296;6.600;2023-12-22T15:01:25;99964.06;;;6.21;100.00
51986;BME280;38002;53.296;6.600;2023-12-22T15:06:26;99987.53;;;6.20;100.00
51986;BME280;38002;53.296;6.600;2023-12-22T15:11:27;99978.88;;;6.17;100.00
51986;BME280;38002;53.296;6.600;2023-12-22T15:16:27;99979.88;;;6.16;100.00
51986;BME280;38002;53.296;6.600;2023-12-22T15:21:27;99996.94;;;6.16;100.00
51986;BME280;38002;53.296;6.600;2023-12-22T15:26:28;100028.63;;;6.14;100.00
51986;BME280;38002;53.296;6.600;2023-12-22T15:31:29;100050.91;;;6.16;100.00
51986;BME280;38002;53.296;6.600;2023-12-22T15:36:30;100054.59;;;6.15;100.00
51986;BME280;38002;53.296;6.600;2023-12-22T15:41:31;100063.56;;;6.16;100.00
51986;BME280;38002;53.296;6.600;2023-12-22T15:46:31;100069.19;;;6.22;100.00
51986;BME280;38002;53.296;6.600;2023-12-22T15:51:32;100074.97;;;6.27;100.00
51986;BME280;38002;53.296;6.600;2023-12-22T15:56:32;100058.16;;;6.33;100.00
51986;BME280;38002;53.296;6.600;2023-12-22T16:01:32;100055.47;;;6.33;100.00
51986;BME280;38002;53.296;6.600;2023-12-22T16:06:33;100088.22;;;6.38;100.00
51986;BME280;38002;53.296;6.600;2023-12-22T16:11:33;100084.06;;;6.44;100.00
51986;BME280;38002;53.296;6.600;2023-12-22T16:16:34;100083.06;;;6.45;100.00
51986;BME280;38002;53.296;6.600;2023-12-22T16:21:40;100094.25;;;6.50;100.00
51986;BME280;38002;53.296;6.600;2023-12-22T16:26:41;100100.06;;;6.55;100.00
51986;BME280;38002;53.296;6.600;2023-12-22T16:31:42;100095.84;;;6.61;100.00
51986;BME280;38002;53.296;6.600;2023-12-22T16:36:45;100111.31;;;6.68;100.00
51986;BME280;38002;53.296;6.600;2023-12-22T16:41:46;100101.72;;;6.74;100.00
51986;BME280;38002;53.296;6.600;2023-12-22T16:46:47;100103.81;;;6.80;100.00
51986;BME280;38002;53.296;6.600;2023-12-22T16:51:48;100098.06;;;6.83;100.00
51986;BME280;38002;53.296;6.600;2023-12-22T16:56:50;100110.72;;;6.82;99.73
51986;BME280;38002;53.296;6.600;2023-12-22T17:01:50;100141.16;;;6.84;99.72
51986;BME280;38002;53.296;6.600;2023-12-22T17:06:52;100157.44;;;6.93;99.44
51986;BME280;38002;53.296;6.600;2023-12-22T17:11:53;100169.72;;;6.87;99.66
51986;BME280;38002;53.296;6.600;2023-12-22T17:16:53;100166.28;;;6.77;99.33
51986;BME280;38002;53.296;6.600;2023-12-22T17:21:54;100206.00;;;6.67;99.37
51986;BME280;38002;53.296;6.600;2023-12-22T17:26:54;100232.22;;;6.57;99.29
51986;BME280;38002;53.296;6.600;2023-12-22T17:31:55;100235.69;;;6.49;99.57
51986;BME280;38002;53.296;6.600;2023-12-22T17:36:57;100240.59;;;6.36;98.91
51986;BME280;38002;53.296;6.600;2023-12-22T17:41:57;100226.59;;;6.23;99.67
51986;BME280;38002;53.296;6.600;2023-12-22T17:46:58;100261.91;;;6.12;100.00
51986;BME280;38002;53.296;6.600;2023-12-22T17:52:03;100272.84;;;6.01;99.98
51986;BME280;38002;53.296;6.600;2023-12-22T17:57:05;100285.69;;;5.89;99.75
51986;BME280;38002;53.296;6.600;2023-12-22T18:02:05;100284.25;;;5.85;100.00
51986;BME280;38002;53.296;6.600;2023-12-22T18:07:06;100284.81;;;5.79;100.00
51986;BME280;38002;53.296;6.600;2023-12-22T18:12:07;100296.63;;;5.78;100.00
51986;BME280;38002;53.296;6.600;2023-12-22T18:17:07;100299.47;;;5.76;100.00
51986;BME280;38002;53.296;6.600;2023-12-22T18:22:07;100322.59;;;5.79;100.00
51986;BME280;38002;53.296;6.600;2023-12-22T18:27:08;100312.66;;;5.79;100.00
51986;BME280;38002;53.296;6.600;2023-12-22T18:32:08;100304.41;;;5.81;100.00
51986;BME280;38002;53.296;6.600;2023-12-22T18:37:09;100303.13;;;5.85;99.67
51986;BME280;38002;53.296;6.600;2023-12-22T18:42:09;100314.66;;;5.87;99.43
51986;BME280;38002;53.296;6.600;2023-12-22T18:47:10;100316.34;;;5.88;99.16
51986;BME280;38002;53.296;6.600;2023-12-22T18:52:10;100335.97;;;5.90;99.11
51986;BME280;38002;53.296;6.600;2023-12-22T18:57:11;100326.03;;;5.90;99.17
51986;BME280;38002;53.296;6.600;2023-12-22T19:02:11;100340.38;;;5.91;99.49
51986;BME280;38002;53.296;6.600;2023-12-22T19:07:12;100347.31;;;5.93;99.59
51986;BME280;38002;53.296;6.600;2023-12-22T19:12:12;100344.47;;;5.95;99.57
51986;BME280;38002;53.296;6.600;2023-12-22T19:17:13;100339.22;;;5.93;100.00
51986;BME280;38002;53.296;6.600;2023-12-22T19:22:14;100354.56;;;5.93;99.95
51986;BME280;38002;53.296;6.600;2023-12-22T19:27:14;100385.22;;;5.92;100.00
51986;BME280;38002;53.296;6.600;2023-12-22T19:32:15;100373.88;;;5.88;100.00
51986;BME280;38002;53.296;6.600;2023-12-22T19:37:16;100391.91;;;5.88;100.00
51986;BME280;38002;53.296;6.600;2023-12-22T19:42:18;100394.47;;;5.89;100.00
51986;BME280;38002;53.296;6.600;2023-12-22T19:47:18;100422.72;;;5.95;100.00
51986;BME280;38002;53.296;6.600;2023-12-22T19:52:19;100453.97;;;5.98;99.67
51986;BME280;38002;53.296;6.600;2023-12-22T19:57:19;100460.03;;;5.80;98.46
51986;BME280;38002;53.296;6.600;2023-12-22T20:02:20;100468.81;;;5.54;99.33
51986;BME280;38002;53.296;6.600;2023-12-22T20:07:20;100462.25;;;5.37;99.99
51986;BME280;38002;53.296;6.600;2023-12-22T20:12:21;100473.44;;;5.32;98.98
51986;BME280;38002;53.296;6.600;2023-12-22T20:17:21;100463.94;;;5.28;97.08
51986;BME280;38002;53.296;6.600;2023-12-22T20:22:22;100476.44;;;5.29;97.72
51986;BME280;38002;53.296;6.600;2023-12-22T20:27:22;100488.50;;;5.35;97.57
51986;BME280;38002;53.296;6.600;2023-12-22T20:32:23;100482.97;;;5.36;97.62
51986;BME280;38002;53.296;6.600;2023-12-22T20:37:24;100502.41;;;5.40;97.64
51986;BME280;38002;53.296;6.600;2023-12-22T20:42:24;100511.66;;;5.47;98.24
51986;BME280;38002;53.296;6.600;2023-12-22T20:47:25;100525.31;;;5.55;98.09
51986;BME280;38002;53.296;6.600;2023-12-22T20:52:26;100523.75;;;5.62;97.78
51986;BME280;38002;53.296;6.600;2023-12-22T20:57:26;100534.13;;;5.67;98.30
51986;BME280;38002;53.296;6.600;2023-12-22T21:02:26;100531.03;;;5.71;98.20
51986;BME280;38002;53.296;6.600;2023-12-22T21:07:29;100538.56;;;5.77;97.58
51986;BME280;38002;53.296;6.600;2023-12-22T21:12:29;100535.88;;;5.77;97.43
51986;BME280;38002;53.296;6.600;2023-12-22T21:17:30;100546.78;;;5.76;96.97
51986;BME280;38002;53.296;6.600;2023-12-22T21:22:31;100553.16;;;5.75;97.69
51986;BME280;38002;53.296;6.600;2023-12-22T21:27:33;100632.38;;;5.74;97.10
51986;BME280;38002;53.296;6.600;2023-12-22T21:32:34;100645.97;;;5.63;97.10
51986;BME280;38002;53.296;6.600;2023-12-22T21:37:36;100649.66;;;5.31;98.25
51986;BME280;38002;53.296;6.600;2023-12-22T21:42:36;100649.50;;;5.02;99.09
51986;BME280;38002;53.296;6.600;2023-12-22T21:47:37;100656.34;;;4.86;99.31
51986;BME280;38002;53.296;6.600;2023-12-22T21:52:38;100658.81;;;4.78;99.30
51986;BME280;38002;53.296;6.600;2023-12-22T21:57:39;100670.97;;;4.72;99.77
51986;BME280;38002;53.296;6.600;2023-12-22T22:02:42;100664.88;;;4.70;99.52
51986;BME280;38002;53.296;6.600;2023-12-22T22:07:43;100680.41;;;4.67;99.68
51986;BME280;38002;53.296;6.600;2023-12-22T22:12:43;100690.09;;;4.69;99.53
51986;BME280;38002;53.296;6.600;2023-12-22T22:17:43;100688.25;;;4.70;99.90
51986;BME280;38002;53.296;6.600;2023-12-22T22:22:44;100701.44;;;4.73;99.87
51986;BME280;38002;53.296;6.600;2023-12-22T22:27:44;100707.16;;;4.79;98.57
51986;BME280;38002;53.296;6.600;2023-12-22T22:32:45;100703.84;;;4.87;98.27
51986;BME280;38002;53.296;6.600;2023-12-22T22:37:46;100706.97;;;4.92;97.85
51986;BME280;38002;53.296;6.600;2023-12-22T22:42:46;100716.66;;;4.94;97.44
51986;BME280;38002;53.296;6.600;2023-12-22T22:47:47;100718.38;;;4.95;98.17
51986;BME280;38002;53.296;6.600;2023-12-22T22:52:47;100724.63;;;4.96;97.67
51986;BME280;38002;53.296;6.600;2023-12-22T22:57:48;100725.59;;;4.95;97.90
51986;BME280;38002;53.296;6.600;2023-12-22T23:02:48;100732.72;;;4.96;97.80
51986;BME280;38002;53.296;6.600;2023-12-22T23:07:48;100734.66;;;4.94;97.77
51986;BME280;38002;53.296;6.600;2023-12-22T23:12:49;100753.13;;;4.98;97.50
51986;BME280;38002;53.296;6.600;2023-12-22T23:17:49;100747.47;;;5.01;97.41
51986;BME280;38002;53.296;6.600;2023-12-22T23:22:50;100757.59;;;5.09;96.59
51986;BME280;38002;53.296;6.600;2023-12-22T23:27:50;100751.97;;;5.12;96.81
51986;BME280;38002;53.296;6.600;2023-12-22T23:32:51;100761.25;;;5.19;96.98
51986;BME280;38002;53.296;6.600;2023-12-22T23:54:51;100742.53;;;5.18;97.57
51986;BME280;38002;53.296;6.600;2023-12-22T23:59:51;100742.53;;;5.18;97.80
